Time;durP1;ratioP1;P1;durP2;ratioP2;P2;SDS_P1;SDS_P2;PMS_P1;PMS_P2;Temp;Humidity;BMP_temperature;BMP_pressure;BME280_temperature;BME280_humidity;BME280_pressure;Samples;Min_cycle;Max_cycle;Signal;HPM_P1;HPM_P2
2023/04/07 00:04:10;;;;;;;88.97;45.75;;;;;;;6.70;100.00;101210.41;10392242;28;20138;-76
2023/04/07 00:09:11;;;;;;;85.25;43.92;;;;;;;6.70;100.00;101212.13;10367132;28;20132;-76
2023/04/07 00:14:11;;;;;;;92.22;46.50;;;;;;;6.68;100.00;101211.09;10359495;28;20192;-76
2023/04/07 00:19:12;;;;;;;91.03;51.53;;;;;;;6.69;100.00;101213.81;10382240;28;20137;-76
2023/04/07 00:24:12;;;;;;;89.05;47.78;;;;;;;6.69;100.00;101215.50;10389760;28;20133;-76
2023/04/07 00:29:13;;;;;;;90.72;50.08;;;;;;;6.70;100.00;101218.19;10375831;28;20391;-76
2023/04/07 00:34:13;;;;;;;89.85;49.67;;;;;;;6.72;100.00;101215.72;10361702;28;20133;-76
2023/04/07 00:39:14;;;;;;;88.20;46.60;;;;;;;6.74;100.00;101216.72;10360258;28;20124;-76
2023/04/07 00:44:14;;;;;;;99.85;47.60;;;;;;;6.80;100.00;101211.94;10344888;28;20096;-76
2023/04/07 00:49:16;;;;;;;104.80;51.28;;;;;;;6.79;100.00;101212.75;10345335;28;20180;-76
2023/04/07 00:54:17;;;;;;;107.00;55.10;;;;;;;6.79;100.00;101217.03;10379213;28;20465;-75
2023/04/07 00:59:18;;;;;;;114.30;53.40;;;;;;;6.79;100.00;101217.03;10379723;28;20073;-77
2023/04/07 01:04:25;;;;;;;112.82;53.97;;;;;;;6.76;100.00;101216.03;10380127;28;20041;-75
2023/04/07 01:09:29;;;;;;;102.63;52.85;;;;;;;6.75;100.00;101214.22;10384491;28;20034;-76
2023/04/07 01:14:32;;;;;;;112.13;55.20;;;;;;;6.73;100.00;101212.31;10377731;28;20457;-75
2023/04/07 01:19:39;;;;;;;97.03;53.15;;;;;;;6.73;100.00;101212.31;10367440;28;20052;-76
2023/04/07 01:25:14;;;;;;;103.55;51.85;;;;;;;6.66;100.00;101204.91;10399546;28;20033;-76
2023/04/07 01:30:14;;;;;;;98.22;49.75;;;;;;;6.62;100.00;101221.97;10398792;28;20548;-76
2023/04/07 01:35:15;;;;;;;92.70;50.88;;;;;;;6.60;100.00;101216.69;10370078;28;20041;-76
2023/04/07 01:40:15;;;;;;;88.63;53.42;;;;;;;6.58;100.00;101217.34;10379032;28;20080;-76
2023/04/07 01:45:16;;;;;;;109.00;55.17;;;;;;;6.55;100.00;101222.34;10354965;28;20405;-75
2023/04/07 01:50:16;;;;;;;92.43;52.70;;;;;;;6.51;100.00;101226.44;10415273;28;20120;-75
2023/04/07 01:55:17;;;;;;;100.03;52.67;;;;;;;6.51;100.00;101226.44;10371907;28;20062;-74
2023/04/07 02:00:17;;;;;;;85.80;51.72;;;;;;;6.49;100.00;101233.25;10396663;28;20148;-75
2023/04/07 02:05:19;;;;;;;97.47;53.03;;;;;;;6.45;100.00;101231.22;10376226;28;20038;-75
2023/04/07 02:10:21;;;;;;;86.82;49.60;;;;;;;6.44;100.00;101232.00;10348938;28;20474;-75
2023/04/07 02:15:22;;;;;;;78.90;47.47;;;;;;;6.41;100.00;101230.09;10389675;28;20041;-74
2023/04/07 02:20:22;;;;;;;94.35;51.65;;;;;;;6.40;100.00;101230.88;10397105;28;20045;-75
2023/04/07 02:25:28;;;;;;;86.10;47.40;;;;;;;6.38;100.00;101235.06;10382011;28;20037;-75
2023/04/07 02:30:28;;;;;;;87.95;46.78;;;;;;;6.39;100.00;101236.88;10393039;28;20072;-75
2023/04/07 02:35:29;;;;;;;78.63;45.45;;;;;;;6.35;100.00;101236.56;10379366;28;20124;-75
2023/04/07 02:40:29;;;;;;;78.00;44.67;;;;;;;6.34;100.00;101238.25;10396059;28;20037;-74
2023/04/07 02:45:30;;;;;;;87.93;45.72;;;;;;;6.32;100.00;101235.56;10386316;28;20140;-75
2023/04/07 02:50:30;;;;;;;81.97;41.00;;;;;;;6.31;100.00;101227.63;10397356;28;20038;-75
2023/04/07 02:55:31;;;;;;;66.40;40.78;;;;;;;6.28;100.00;101237.81;10389961;28;20057;-75
2023/04/07 03:00:32;;;;;;;78.18;40.85;;;;;;;6.25;100.00;101238.50;10383873;28;20071;-75
2023/04/07 03:05:33;;;;;;;65.38;41.60;;;;;;;6.24;100.00;101234.09;10377057;28;20045;-75
2023/04/07 03:10:34;;;;;;;72.30;42.42;;;;;;;6.23;100.00;101229.72;10396197;28;20107;-75
2023/04/07 03:15:35;;;;;;;66.10;42.60;;;;;;;6.27;100.00;101241.22;10383640;28;20064;-75
2023/04/07 03:20:36;;;;;;;77.22;42.70;;;;;;;6.25;100.00;101242.78;10398609;28;20079;-75
2023/04/07 03:25:37;;;;;;;66.38;42.83;;;;;;;6.21;100.00;101245.97;10351238;28;20041;-75
2023/04/07 03:30:37;;;;;;;65.32;38.88;;;;;;;6.20;100.00;101244.16;10392799;28;20109;-75
2023/04/07 03:35:38;;;;;;;55.33;30.95;;;;;;;6.26;100.00;101247.19;10385248;28;20117;-75
2023/04/07 03:40:38;;;;;;;46.58;28.83;;;;;;;6.24;100.00;101241.00;10399185;28;20449;-75
2023/04/07 03:45:39;;;;;;;38.47;22.17;;;;;;;6.22;100.00;101260.78;10335655;28;20188;-76
2023/04/07 03:50:40;;;;;;;29.10;17.63;;;;;;;6.19;100.00;101247.56;10326156;28;20068;-78
2023/04/07 03:55:40;;;;;;;27.65;13.68;;;;;;;6.17;100.00;101253.53;10361332;28;20037;-75
2023/04/07 04:00:41;;;;;;;19.92;11.75;;;;;;;6.09;100.00;101254.69;10363190;28;20060;-75
2023/04/07 04:05:41;;;;;;;20.10;11.65;;;;;;;6.09;100.00;101252.09;10386017;28;20132;-78
2023/04/07 04:10:42;;;;;;;15.82;8.60;;;;;;;6.08;100.00;101245.09;10360481;28;20170;-76
2023/04/07 04:15:42;;;;;;;25.05;11.55;;;;;;;6.02;100.00;101255.97;10377423;28;20179;-75
2023/04/07 04:20:43;;;;;;;18.42;9.95;;;;;;;6.02;100.00;101260.25;10358939;28;20568;-74
2023/04/07 04:25:43;;;;;;;18.63;11.85;;;;;;;5.98;100.00;101264.28;10375055;28;20136;-75
2023/04/07 04:30:44;;;;;;;16.00;10.82;;;;;;;6.03;100.00;101267.25;10368701;28;20171;-75
2023/04/07 04:35:45;;;;;;;21.48;12.00;;;;;;;5.98;100.00;101273.75;10381644;28;20057;-75
2023/04/07 04:40:45;;;;;;;21.95;11.82;;;;;;;5.96;100.00;101280.53;10348757;28;20053;-75
2023/04/07 04:45:46;;;;;;;18.42;11.30;;;;;;;5.93;100.00;101285.53;10350203;28;20465;-75
2023/04/07 04:50:46;;;;;;;24.85;13.30;;;;;;;5.92;100.00;101289.81;10346261;28;20049;-76
2023/04/07 04:55:50;;;;;;;26.02;12.55;;;;;;;5.93;100.00;101294.22;10384783;28;20436;-75
2023/04/07 05:00:58;;;;;;;27.75;15.40;;;;;;;5.92;100.00;101300.22;10384591;28;20072;-74
2023/04/07 05:05:58;;;;;;;25.00;13.38;;;;;;;5.94;100.00;101313.31;10388852;28;20042;-74
2023/04/07 05:10:59;;;;;;;25.85;13.52;;;;;;;5.94;100.00;101308.09;10372533;28;20070;-75
2023/04/07 05:16:00;;;;;;;22.55;12.65;;;;;;;5.95;100.00;101313.44;10361690;28;20073;-74
2023/04/07 05:21:00;;;;;;;28.55;13.50;;;;;;;5.96;100.00;101319.53;10362495;28;20070;-74
2023/04/07 05:26:01;;;;;;;24.95;12.35;;;;;;;6.01;100.00;101323.41;10372697;28;20038;-74
2023/04/07 05:31:02;;;;;;;24.33;13.70;;;;;;;6.00;100.00;101325.09;10357315;28;20057;-73
2023/04/07 05:36:03;;;;;;;26.08;13.05;;;;;;;6.02;100.00;101322.59;10356152;28;20477;-74
2023/04/07 05:41:03;;;;;;;25.77;12.93;;;;;;;6.04;100.00;101318.41;10361342;28;20042;-73
2023/04/07 05:46:04;;;;;;;22.20;14.43;;;;;;;6.11;100.00;101317.19;10359249;28;20564;-74
2023/04/07 05:51:05;;;;;;;34.35;14.98;;;;;;;6.17;100.00;101323.72;10359689;28;20045;-74
2023/04/07 05:56:06;;;;;;;25.83;14.45;;;;;;;6.22;100.00;101328.34;10351001;28;20118;-74
2023/04/07 06:01:06;;;;;;;28.60;16.40;;;;;;;6.35;100.00;101327.56;10360904;28;20044;-74
2023/04/07 06:06:07;;;;;;;36.65;20.95;;;;;;;6.43;100.00;101332.50;10375981;28;20048;-77
2023/04/07 06:11:07;;;;;;;35.80;20.77;;;;;;;6.55;100.00;101340.28;10367679;28;20209;-74
2023/04/07 06:16:07;;;;;;;34.83;19.92;;;;;;;6.69;100.00;101343.88;10368237;28;20121;-73
2023/04/07 06:21:08;;;;;;;35.10;17.80;;;;;;;6.74;100.00;101352.00;10352701;28;20044;-74
2023/04/07 06:26:10;;;;;;;39.40;19.90;;;;;;;6.67;100.00;101360.16;10370833;28;20039;-73
2023/04/07 06:31:11;;;;;;;31.83;18.65;;;;;;;6.59;100.00;101360.53;10360283;28;20495;-74
2023/04/07 06:36:12;;;;;;;32.50;18.23;;;;;;;6.56;100.00;101362.00;10364742;28;20137;-75
2023/04/07 06:41:15;;;;;;;33.38;16.95;;;;;;;6.52;100.00;101367.75;10360825;28;20181;-74
2023/04/07 06:46:17;;;;;;;37.05;17.48;;;;;;;6.55;100.00;101371.50;10394948;28;20129;-74
2023/04/07 06:51:17;;;;;;;39.27;20.13;;;;;;;6.55;100.00;101379.31;10363012;28;20453;-74
2023/04/07 06:56:18;;;;;;;43.40;21.83;;;;;;;6.60;100.00;101385.75;10360289;28;20123;-74
2023/04/07 07:01:18;;;;;;;38.72;21.00;;;;;;;6.64;100.00;101394.66;10363555;28;20072;-74
2023/04/07 07:06:19;;;;;;;43.22;25.52;;;;;;;6.73;100.00;101403.13;10363808;28;20056;-74
2023/04/07 07:11:19;;;;;;;34.25;20.38;;;;;;;6.79;100.00;101400.06;10363900;28;20461;-74
2023/04/07 07:16:22;;;;;;;39.10;22.40;;;;;;;6.87;100.00;101403.19;10344832;28;20080;-74
2023/04/07 07:21:23;;;;;;;38.97;17.85;;;;;;;7.02;100.00;101408.59;10362227;28;20133;-75
2023/04/07 07:26:23;;;;;;;44.92;20.38;;;;;;;7.07;100.00;101403.72;10363866;28;20489;-75
2023/04/07 07:31:24;;;;;;;38.47;18.30;;;;;;;7.03;100.00;101410.41;10361205;28;20192;-75
2023/04/07 07:36:25;;;;;;;39.83;18.05;;;;;;;7.00;100.00;101415.41;10361672;28;20065;-74
2023/04/07 07:41:26;;;;;;;32.15;19.90;;;;;;;6.97;100.00;101426.47;10361417;28;20212;-75
2023/04/07 07:46:26;;;;;;;38.13;19.25;;;;;;;7.04;100.00;101422.63;10364670;28;20038;-74
2023/04/07 07:51:27;;;;;;;41.90;19.23;;;;;;;7.25;100.00;101433.63;10377195;28;20048;-74
2023/04/07 07:56:30;;;;;;;35.25;18.75;;;;;;;7.46;100.00;101422.91;10365443;28;20042;-74
2023/04/07 08:01:33;;;;;;;39.50;20.50;;;;;;;7.48;100.00;101432.66;10360398;28;20037;-74
2023/04/07 08:06:33;;;;;;;40.20;16.20;;;;;;;7.52;100.00;101440.69;10320018;28;20038;-74
2023/04/07 08:11:34;;;;;;;29.92;17.30;;;;;;;7.69;100.00;101450.56;10319057;28;20046;-77
2023/04/07 08:16:35;;;;;;;29.48;17.52;;;;;;;7.67;100.00;101446.03;10320958;28;20555;-73
2023/04/07 08:21:35;;;;;;;33.78;17.88;;;;;;;7.59;100.00;101446.41;10332234;28;20049;-75
2023/04/07 08:26:36;;;;;;;40.47;21.77;;;;;;;7.55;100.00;101448.72;10330930;28;20461;-77
2023/04/07 08:31:36;;;;;;;36.88;18.75;;;;;;;7.58;100.00;101460.22;10342458;28;20058;-74
2023/04/07 08:36:37;;;;;;;28.98;16.70;;;;;;;7.63;100.00;101471.88;10370531;28;20156;-73
2023/04/07 08:41:39;;;;;;;33.20;17.88;;;;;;;7.79;100.00;101465.09;10365619;28;20060;-73
2023/04/07 08:46:40;;;;;;;27.95;16.85;;;;;;;7.92;100.00;101479.91;10344609;28;20048;-74
2023/04/07 08:51:47;;;;;;;38.08;16.63;;;;;;;7.88;100.00;101480.50;10361644;28;20511;-74
2023/04/07 08:56:47;;;;;;;27.00;17.23;;;;;;;7.86;100.00;101487.31;10360046;28;20087;-74
2023/04/07 09:01:48;;;;;;;29.88;15.35;;;;;;;7.85;100.00;101493.31;10329683;28;20046;-74
2023/04/07 09:06:48;;;;;;;27.35;16.27;;;;;;;7.74;100.00;101488.25;10362744;28;20113;-74
2023/04/07 09:11:50;;;;;;;25.50;15.75;;;;;;;7.64;100.00;101496.25;10352817;28;20120;-74
2023/04/07 09:16:50;;;;;;;23.33;14.13;;;;;;;7.73;100.00;101489.06;10354602;28;20030;-74
2023/04/07 09:21:51;;;;;;;26.95;15.55;;;;;;;7.96;100.00;101502.78;10375058;28;20065;-73
2023/04/07 09:27:11;;;;;;;25.05;12.38;;;;;;;8.35;100.00;101503.66;10340607;28;20061;-75
2023/04/07 09:32:12;;;;;;;31.70;12.57;;;;;;;8.45;100.00;101499.06;10331393;28;20064;-75
2023/04/07 09:37:21;;;;;;;14.00;8.82;;;;;;;8.71;100.00;101495.56;10369215;28;20069;-75
2023/04/07 09:42:22;;;;;;;18.17;6.82;;;;;;;8.84;100.00;101489.47;10375005;28;20038;-75
2023/04/07 09:47:28;;;;;;;14.70;6.30;;;;;;;8.81;100.00;101489.25;10367269;28;20062;-75
2023/04/07 09:52:47;;;;;;;13.75;7.47;;;;;;;8.81;100.00;101489.25;10346179;28;20042;-75
2023/04/07 09:57:49;;;;;;;61.95;34.28;;;;;;;8.73;100.00;101493.97;10354719;28;20065;-76
2023/04/07 10:02:50;;;;;;;51.40;29.02;;;;;;;8.50;100.00;101500.28;10344021;28;20042;-75
2023/04/07 10:07:51;;;;;;;17.30;13.40;;;;;;;8.43;100.00;101506.75;10340262;28;20035;-75
2023/04/07 10:12:52;;;;;;;12.70;6.97;;;;;;;8.43;100.00;101505.88;10335878;28;20128;-75
2023/04/07 10:17:52;;;;;;;12.60;5.53;;;;;;;8.52;100.00;101504.78;10358380;28;20037;-74
2023/04/07 10:22:53;;;;;;;13.95;6.65;;;;;;;8.55;100.00;101505.81;10372707;28;20045;-75
2023/04/07 10:27:57;;;;;;;10.80;4.90;;;;;;;8.66;100.00;101508.34;10347917;28;20236;-75
2023/04/07 10:32:58;;;;;;;12.27;6.65;;;;;;;8.76;100.00;101514.16;10393695;28;20071;-75
2023/04/07 10:38:12;;;;;;;14.57;7.15;;;;;;;9.10;100.00;101506.78;10373735;28;20046;-75
2023/04/07 10:43:13;;;;;;;10.50;5.38;;;;;;;9.34;100.00;101509.13;10352678;28;20034;-75
2023/04/07 10:48:15;;;;;;;12.47;4.93;;;;;;;9.13;100.00;101513.00;10353655;28;20045;-76
2023/04/07 10:53:16;;;;;;;13.32;5.93;;;;;;;8.96;100.00;101511.13;10363489;28;20054;-75
2023/04/07 10:58:29;;;;;;;15.95;7.60;;;;;;;9.18;100.00;101524.66;10363433;28;20041;-75
2023/04/07 11:03:33;;;;;;;36.17;17.77;;;;;;;9.01;100.00;101523.56;10380245;28;20050;-76
2023/04/07 11:08:34;;;;;;;15.85;6.55;;;;;;;8.97;100.00;101527.69;10364742;28;20498;-75
2023/04/07 11:13:41;;;;;;;13.10;5.00;;;;;;;9.04;100.00;101516.81;10360129;28;20081;-76
2023/04/07 11:18:42;;;;;;;10.18;4.03;;;;;;;9.44;100.00;101525.41;10360896;28;20057;-76
2023/04/07 11:23:44;;;;;;;17.02;4.43;;;;;;;10.21;100.00;101522.25;10360464;28;20034;-76
2023/04/07 11:28:48;;;;;;;;;;;;;;;11.11;100.00;101511.69;10363432;28;20116;-76
2023/04/07 11:33:55;;;;;;;7.68;4.85;;;;;;;11.83;100.00;101512.91;10363592;28;19921;-76
2023/04/07 11:38:56;;;;;;;9.68;4.50;;;;;;;10.96;100.00;101514.38;10381336;28;20106;-76
2023/04/07 11:44:07;;;;;;;12.35;4.63;;;;;;;10.05;100.00;101528.28;10402395;28;20179;-76
2023/04/07 11:49:13;;;;;;;11.98;4.10;;;;;;;9.78;100.00;101535.34;10396885;28;20045;-76
2023/04/07 11:54:14;;;;;;;7.88;3.50;;;;;;;9.80;100.00;101534.63;10328544;28;20038;-76
2023/04/07 11:59:19;;;;;;;9.25;3.47;;;;;;;10.31;100.00;101549.88;10361020;28;20533;-76
2023/04/07 12:04:20;;;;;;;6.38;2.90;;;;;;;11.06;100.00;101538.47;10360866;28;20049;-76
2023/04/07 12:09:31;;;;;;;7.28;3.50;;;;;;;10.78;100.00;101552.59;10360540;28;20120;-76
2023/04/07 12:14:31;;;;;;;8.93;3.72;;;;;;;9.98;100.00;101561.00;10362100;28;20042;-76
2023/04/07 12:19:34;;;;;;;15.77;9.98;;;;;;;9.30;100.00;101574.16;10376057;28;20496;-75
2023/04/07 12:24:35;;;;;;;9.63;4.22;;;;;;;8.96;100.00;101576.41;10368835;28;20042;-76
2023/04/07 12:29:36;;;;;;;19.27;10.90;;;;;;;8.91;100.00;101590.84;10364226;28;20065;-77
2023/04/07 12:34:36;;;;;;;15.38;8.48;;;;;;;8.80;100.00;101586.63;10350125;28;20038;-75
2023/04/07 12:39:37;;;;;;;12.98;4.07;;;;;;;8.96;100.00;101589.47;10357769;28;20128;-76
2023/04/07 12:44:37;;;;;;;12.43;7.43;;;;;;;9.50;100.00;101586.78;10367802;28;20112;-76
2023/04/07 12:49:38;;;;;;;21.92;6.35;;;;;;;10.07;100.00;101589.44;10360639;28;20081;-76
2023/04/07 12:54:39;;;;;;;8.95;5.50;;;;;;;10.11;100.00;101591.44;10373359;28;20517;-76
2023/04/07 12:59:39;;;;;;;15.77;6.90;;;;;;;9.83;100.00;101596.66;10392124;28;20060;-76
2023/04/07 13:04:42;;;;;;;11.48;3.80;;;;;;;9.90;100.00;101604.06;10365702;28;20137;-76
2023/04/07 13:09:42;;;;;;;13.75;4.35;;;;;;;9.70;100.00;101601.09;10367819;28;20038;-76
2023/04/07 13:14:43;;;;;;;12.25;4.10;;;;;;;9.64;100.00;101600.72;10369097;28;20532;-76
2023/04/07 13:19:45;;;;;;;13.93;4.30;;;;;;;9.64;100.00;101595.50;10369272;28;20144;-76
2023/04/07 13:24:46;;;;;;;10.40;4.90;;;;;;;9.95;100.00;101589.56;10369055;28;20063;-76
2023/04/07 13:29:46;;;;;;;10.23;4.35;;;;;;;10.43;100.00;101586.34;10368506;28;20045;-76
2023/04/07 13:34:47;;;;;;;9.88;4.25;;;;;;;10.94;100.00;101586.72;10364278;28;20061;-75
2023/04/07 13:39:47;;;;;;;12.25;4.25;;;;;;;11.01;100.00;101585.34;10367978;28;20034;-76
2023/04/07 13:44:49;;;;;;;10.95;4.78;;;;;;;10.63;100.00;101578.78;10366139;28;20129;-75
2023/04/07 13:49:53;;;;;;;7.28;3.45;;;;;;;10.20;100.00;101593.69;10367165;28;20470;-75
2023/04/07 13:54:53;;;;;;;7.22;3.60;;;;;;;10.13;100.00;101597.66;10366270;28;20037;-75
2023/04/07 13:59:54;;;;;;;11.88;4.32;;;;;;;10.28;100.00;101595.06;10364997;28;20489;-75
2023/04/07 14:04:55;;;;;;;15.10;4.50;;;;;;;9.93;100.00;101592.91;10366186;28;20151;-75
2023/04/07 14:09:57;;;;;;;5.97;4.13;;;;;;;9.51;100.00;101604.28;10365078;28;20041;-76
2023/04/07 14:14:57;;;;;;;11.70;3.83;;;;;;;9.06;100.00;101608.34;10362693;28;20042;-76
2023/04/07 14:19:58;;;;;;;11.45;4.28;;;;;;;8.91;100.00;101614.34;10366328;28;20744;-76
2023/04/07 14:24:58;;;;;;;6.75;2.65;;;;;;;8.80;100.00;101618.84;10364269;28;20066;-75
2023/04/07 14:30:00;;;;;;;11.05;3.50;;;;;;;8.87;100.00;101619.25;10374001;28;20121;-76
2023/04/07 14:35:00;;;;;;;8.00;3.43;;;;;;;9.08;100.00;101625.00;10396009;28;20089;-75
2023/04/07 14:40:02;;;;;;;14.65;4.43;;;;;;;9.13;100.00;101617.47;10364715;28;20050;-76
2023/04/07 14:45:03;;;;;;;10.32;5.07;;;;;;;9.05;100.00;101625.69;10353459;28;20114;-75
2023/04/07 14:50:04;;;;;;;8.55;4.85;;;;;;;8.97;100.00;101624.28;10323501;28;20512;-75
2023/04/07 14:55:05;;;;;;;13.57;6.20;;;;;;;8.76;100.00;101636.81;10362690;28;20048;-75
2023/04/07 15:00:07;;;;;;;11.25;5.95;;;;;;;8.74;100.00;101633.22;10363393;28;20033;-75
2023/04/07 15:05:08;;;;;;;8.00;4.28;;;;;;;8.84;100.00;101626.88;10382774;28;20046;-75
2023/04/07 15:10:09;;;;;;;12.80;4.78;;;;;;;8.90;100.00;101625.59;10358025;28;20050;-75
2023/04/07 15:15:09;;;;;;;8.23;3.83;;;;;;;8.94;100.00;101632.84;10360816;28;20045;-75
2023/04/07 15:20:11;;;;;;;11.23;5.72;;;;;;;9.09;100.00;101634.66;10374721;28;20581;-75
2023/04/07 15:25:12;;;;;;;8.52;5.18;;;;;;;9.22;100.00;101632.03;10362696;28;20046;-75
2023/04/07 15:30:12;;;;;;;11.13;4.82;;;;;;;9.23;100.00;101641.69;10356450;28;20481;-75
2023/04/07 15:35:13;;;;;;;12.13;4.00;;;;;;;9.24;100.00;101638.28;10360259;28;20042;-75
2023/04/07 15:40:13;;;;;;;14.57;6.13;;;;;;;9.18;100.00;101650.00;10362853;28;20720;-74
2023/04/07 15:45:14;;;;;;;10.05;4.20;;;;;;;9.14;100.00;101648.00;10360167;28;20057;-75
2023/04/07 15:50:14;;;;;;;10.85;3.80;;;;;;;9.13;100.00;101657.56;10360670;28;20125;-78
2023/04/07 15:55:15;;;;;;;11.30;4.65;;;;;;;8.92;100.00;101657.94;10359144;28;20083;-75
2023/04/07 16:00:16;;;;;;;8.70;4.90;;;;;;;8.81;100.00;101666.75;10361737;28;20104;-75
2023/04/07 16:05:17;;;;;;;12.00;4.87;;;;;;;8.56;100.00;101666.78;10362079;28;20061;-75
2023/04/07 16:10:20;;;;;;;12.15;4.80;;;;;;;8.51;100.00;101671.69;10366971;28;20057;-75
2023/04/07 16:15:21;;;;;;;10.60;5.18;;;;;;;8.50;100.00;101672.47;10388094;28;20034;-75
2023/04/07 16:20:22;;;;;;;13.40;5.75;;;;;;;8.44;100.00;101674.63;10360802;28;20045;-75
2023/04/07 16:25:23;;;;;;;17.23;9.32;;;;;;;8.42;100.00;101674.50;10352919;28;20092;-75
2023/04/07 16:30:24;;;;;;;19.73;8.77;;;;;;;8.43;100.00;101678.03;10374639;28;20044;-74
2023/04/07 16:35:24;;;;;;;8.43;5.10;;;;;;;8.38;100.00;101685.53;10360489;28;20037;-74
2023/04/07 16:40:25;;;;;;;11.85;6.47;;;;;;;8.30;100.00;101694.53;10389316;28;20044;-73
2023/04/07 16:45:26;;;;;;;15.23;5.03;;;;;;;8.17;100.00;101693.66;10359439;28;20057;-74
2023/04/07 16:50:26;;;;;;;14.80;5.57;;;;;;;8.08;100.00;101698.22;10360676;28;20042;-74
2023/04/07 16:55:27;;;;;;;10.25;4.70;;;;;;;8.01;100.00;101714.22;10357571;28;20474;-75
2023/04/07 17:00:27;;;;;;;16.70;11.07;;;;;;;7.94;100.00;101716.41;10364572;28;20069;-74
2023/04/07 17:05:28;;;;;;;24.92;14.30;;;;;;;7.89;100.00;101722.09;10358855;28;20070;-76
2023/04/07 17:10:28;;;;;;;12.57;8.93;;;;;;;7.83;100.00;101725.13;10391268;28;20137;-77
2023/04/07 17:15:29;;;;;;;12.63;5.85;;;;;;;7.79;100.00;101733.53;10352777;28;20069;-74
2023/04/07 17:20:29;;;;;;;11.88;4.95;;;;;;;7.75;100.00;101745.44;10348091;28;20137;-74
2023/04/07 17:25:30;;;;;;;16.98;7.40;;;;;;;7.72;100.00;101752.13;10359104;28;20124;-75
2023/04/07 17:30:30;;;;;;;15.38;5.40;;;;;;;7.70;100.00;101748.50;10357833;28;20137;-75
2023/04/07 17:35:31;;;;;;;10.45;6.43;;;;;;;7.70;100.00;101762.44;10358901;28;20126;-75
2023/04/07 17:40:31;;;;;;;12.18;4.50;;;;;;;7.66;100.00;101768.22;10358967;28;20117;-74
2023/04/07 17:45:32;;;;;;;11.15;4.57;;;;;;;7.60;100.00;101773.88;10374254;28;20050;-76
2023/04/07 17:50:32;;;;;;;13.55;5.15;;;;;;;7.55;100.00;101777.84;10360262;28;20425;-75
2023/04/07 17:55:33;;;;;;;13.98;4.38;;;;;;;7.48;100.00;101784.31;10365742;28;20061;-77
2023/04/07 18:00:33;;;;;;;13.30;5.50;;;;;;;7.43;100.00;101784.72;10366482;28;20044;-75
2023/04/07 18:05:34;;;;;;;11.55;5.30;;;;;;;7.38;100.00;101783.47;10364248;28;20145;-75
2023/04/07 18:10:35;;;;;;;12.00;5.17;;;;;;;7.31;100.00;101789.94;10388979;28;20060;-76
2023/04/07 18:15:36;;;;;;;13.98;6.57;;;;;;;7.25;100.00;101792.97;10385389;28;20044;-76
2023/04/07 18:20:36;;;;;;;10.32;5.90;;;;;;;7.20;100.00;101791.72;10366069;28;20057;-75
2023/04/07 18:25:37;;;;;;;11.88;5.35;;;;;;;7.16;100.00;101800.06;10363920;28;20570;-76
2023/04/07 18:30:38;;;;;;;16.63;6.05;;;;;;;7.11;100.00;101809.22;10364773;28;20222;-77
2023/04/07 18:35:38;;;;;;;10.88;5.25;;;;;;;7.06;100.00;101811.50;10363463;28;20129;-75
2023/04/07 18:40:39;;;;;;;11.52;6.35;;;;;;;7.05;100.00;101817.50;10364522;28;20034;-75
2023/04/07 18:45:39;;;;;;;14.95;6.78;;;;;;;7.02;100.00;101828.56;10362831;28;20121;-75
2023/04/07 18:50:40;;;;;;;17.40;7.20;;;;;;;7.00;100.00;101837.06;10361558;28;20076;-75
2023/04/07 18:55:40;;;;;;;17.02;10.77;;;;;;;7.04;100.00;101849.50;10383325;28;20038;-75
2023/04/07 19:00:41;;;;;;;10.75;6.28;;;;;;;7.07;100.00;101851.44;10366851;28;20132;-75
2023/04/07 19:05:42;;;;;;;13.98;7.45;;;;;;;7.05;100.00;101862.63;10362304;28;20458;-75
2023/04/07 19:10:42;;;;;;;12.23;5.53;;;;;;;7.16;100.00;101867.78;10364189;28;20556;-75
2023/04/07 19:15:45;;;;;;;15.77;8.07;;;;;;;7.19;100.00;101861.13;10362104;28;20176;-75
2023/04/07 19:20:45;;;;;;;8.90;5.75;;;;;;;7.15;100.00;101863.34;10390260;28;20038;-76
2023/04/07 19:25:46;;;;;;;20.38;6.85;;;;;;;7.12;100.00;101878.72;10358696;28;20541;-75
2023/04/07 19:30:47;;;;;;;13.30;8.02;;;;;;;7.06;100.00;101876.56;10362540;28;20474;-75
2023/04/07 19:35:47;;;;;;;11.60;6.03;;;;;;;7.02;100.00;101878.00;10364487;28;20057;-77
2023/04/07 19:40:48;;;;;;;18.38;5.95;;;;;;;6.98;100.00;101899.38;10359893;28;20037;-74
2023/04/07 19:45:48;;;;;;;11.82;7.47;;;;;;;6.94;100.00;101894.72;10354066;28;20070;-75
2023/04/07 19:50:50;;;;;;;12.65;7.10;;;;;;;6.93;100.00;101903.31;10360083;28;20490;-76
2023/04/07 19:55:50;;;;;;;25.70;8.38;;;;;;;6.87;100.00;101893.34;10359823;28;20401;-75
2023/04/07 20:00:51;;;;;;;16.58;7.45;;;;;;;6.84;100.00;101897.38;10358619;28;20064;-75
2023/04/07 20:05:52;;;;;;;17.13;7.22;;;;;;;6.82;100.00;101906.75;10360210;28;20120;-75
2023/04/07 20:10:52;;;;;;;13.45;7.07;;;;;;;6.79;100.00;101910.06;10362007;28;20185;-75
2023/04/07 20:15:53;;;;;;;12.95;5.90;;;;;;;6.83;100.00;101917.31;10356133;28;20529;-75
2023/04/07 20:21:00;;;;;;;10.63;6.55;;;;;;;6.79;100.00;101915.25;10375092;28;20490;-74
2023/04/07 20:26:01;;;;;;;13.57;8.05;;;;;;;6.76;100.00;101918.50;10391129;28;20044;-74
2023/04/07 20:31:01;;;;;;;12.50;8.57;;;;;;;6.79;100.00;101916.94;10357561;28;20371;-75
2023/04/07 20:36:02;;;;;;;17.23;8.13;;;;;;;6.75;100.00;101929.69;10360325;28;20069;-75
2023/04/07 20:41:02;;;;;;;19.42;8.43;;;;;;;6.75;100.00;101929.69;10359908;28;20065;-75
2023/04/07 20:46:03;;;;;;;19.58;9.25;;;;;;;6.73;100.00;101936.47;10361206;28;20413;-75
2023/04/07 20:51:03;;;;;;;19.77;8.13;;;;;;;6.71;100.00;101930.22;10358903;28;20034;-74
2023/04/07 20:56:04;;;;;;;26.50;8.93;;;;;;;6.68;100.00;101935.19;10359170;28;20076;-75
2023/04/07 21:01:04;;;;;;;19.17;9.10;;;;;;;6.65;100.00;101940.16;10360283;28;20124;-75
2023/04/07 21:06:05;;;;;;;17.05;7.80;;;;;;;6.64;100.00;101943.53;10360307;28;20041;-75
2023/04/07 21:11:06;;;;;;;13.68;8.80;;;;;;;6.60;100.00;101947.59;10360973;28;20113;-76
2023/04/07 21:16:06;;;;;;;16.30;9.00;;;;;;;6.59;100.00;101948.38;10370790;28;20072;-75
2023/04/07 21:21:07;;;;;;;16.90;9.57;;;;;;;6.55;100.00;101946.31;10373845;28;20065;-74
2023/04/07 21:26:07;;;;;;;23.40;9.50;;;;;;;6.52;100.00;101945.13;10362719;28;20149;-74
2023/04/07 21:31:08;;;;;;;31.90;10.23;;;;;;;6.50;100.00;101941.50;10368465;28;20503;-75
2023/04/07 21:36:08;;;;;;;15.48;10.55;;;;;;;6.46;100.00;101948.16;10365752;28;20517;-74
2023/04/07 21:41:09;;;;;;;18.60;9.77;;;;;;;6.42;100.00;101944.38;10365715;28;20034;-74
2023/04/07 21:46:09;;;;;;;25.25;13.52;;;;;;;6.39;100.00;101951.94;10367273;28;20541;-74
2023/04/07 21:51:10;;;;;;;16.60;9.75;;;;;;;6.37;100.00;101956.09;10369411;28;20073;-75
2023/04/07 21:56:12;;;;;;;17.55;9.02;;;;;;;6.37;100.00;101952.63;10366149;28;20136;-75
2023/04/07 22:01:12;;;;;;;19.75;12.70;;;;;;;6.36;100.00;101959.50;10367281;28;20131;-74
2023/04/07 22:06:13;;;;;;;19.80;10.07;;;;;;;6.36;100.00;101963.78;10383052;28;20128;-75
2023/04/07 22:11:13;;;;;;;22.77;13.38;;;;;;;6.36;100.00;101964.69;10366541;28;20457;-75
2023/04/07 22:16:14;;;;;;;37.03;15.85;;;;;;;6.35;100.00;101969.78;10366559;28;20120;-75
2023/04/07 22:21:15;;;;;;;31.77;12.65;;;;;;;6.34;100.00;101968.84;10366552;28;20505;-74
2023/04/07 22:26:15;;;;;;;23.55;11.80;;;;;;;6.36;100.00;101966.41;10364816;28;20153;-74
2023/04/07 22:31:16;;;;;;;19.88;10.05;;;;;;;6.35;100.00;101965.47;10363889;28;20069;-75
2023/04/07 22:36:16;;;;;;;23.23;13.52;;;;;;;6.34;100.00;101971.44;10364002;28;20501;-74
2023/04/07 22:41:17;;;;;;;23.85;12.18;;;;;;;6.32;100.00;101973.03;10351361;28;20042;-74